Richmond, VA (23229)

2:50 PM EDT on July 28, 2015 (GMT -0400)
Windsor Farms | | Change Station
CLOSE
Current Station
Personal Weather Station
Location: Richmond, VA
Elevation: 242 ft
Nearby Weather Stations

Elev 242 ft 37.56 °N, 77.50 °W | Updated 20 seconds ago

Overcast
Overcast
82.5 °F
Feels Like 91 °F
N
0.0
Wind Variable Wind from NNE
Gusts 2.0 mph

Today
High -- | Low -- °F
--% Chance of Precip.
Yesterday
High -- | Low -- °F
Precip. -- in
6:10 AM 8:22 PM
Waxing Gibbous, 91% visible
Pressure 30.00 in
Visibility 7.0 miles
Clouds Scattered Clouds 2800 ft
Mostly Cloudy 4300 ft
Overcast 8000 ft
Heat Index 91 °F
Dew Point 77 °F
Humidity 83%
Rainfall 0.11 in
Snow Depth Not available.
UV 3 out of 12
Pollen 4.50 out of 12
Air Quality Not available.
Flu Activity Not available.
SPECI KRIC 281807Z 14006KT 7SM -TSRA SCT028CB BKN043 OVC080 26/23 A3000 RMK AO2 OCNL LTGIC E TS MOV E P0001

More Conditions Fewer Conditions

Pressure 30.00 in
Visibility 7.0 miles
Clouds Scattered Clouds 2800 ft
Mostly Cloudy 4300 ft
Overcast 8000 ft
Heat Index 91 °F
Dew Point 77 °F
Humidity 83%
Rainfall 0.11 in
Snow Depth Not available.
UV 3 out of 12
Pollen 4.50 out of 12
Air Quality Not available.
Flu Activity Not available.
SPECI KRIC 281807Z 14006KT 7SM -TSRA SCT028CB BKN043 OVC080 26/23 A3000 RMK AO2 OCNL LTGIC E TS MOV E P0001

More Conditions Fewer Conditions

10-Day Weather Forecast

×

Almanac

Astronomy

Jul. 28, 2015 Rise Set
Actual Time
Civil Twilight
Nautical Twilight
Astronomical Twilight
Moon
Length of Visible Light
Length of Day
Tomorrow will be .
, % of the Moon is Illuminated

Today's Extremes

State Highs State Lows

Community

WunderPhotos

Upload Photos

1,841,908 photos uploaded!

WunderBlogs® & News

Nearby

Air Quality

  Air Quality AQ Index Pollutant
Not available.

Snow Depth

Station Depth Elevation

Earthquake Activity

City Distance Mag. Time & Date
Minimum magnitude displayed is 2.5.

Coastal Water Temperatures

Place Temperature

Stations

Nearby Weather Stations

Station Location Temp. Windchill Dew Point Humidity Wind Precip. Elev Updated Type